createdAt,value
2023-02-23T00:01:26.332Z,40.47
2023-02-23T00:03:56.568Z,38.22
2023-02-23T00:06:25.391Z,41.65
2023-02-23T00:08:52.573Z,40.95
2023-02-23T00:11:20.553Z,49.80
2023-02-23T00:13:52.442Z,43.00
2023-02-23T00:16:21.762Z,42.13
2023-02-23T00:18:55.832Z,44.92
2023-02-23T00:21:23.441Z,52.63
2023-02-23T00:23:55.636Z,46.65
2023-02-23T00:26:24.258Z,40.33
2023-02-23T00:28:52.962Z,37.38
2023-02-23T00:31:27.160Z,43.85
2023-02-23T00:33:56.035Z,40.67
2023-02-23T00:36:26.150Z,40.72
2023-02-23T00:38:54.794Z,42.55
2023-02-23T00:41:24.395Z,38.90
2023-02-23T00:43:54.766Z,40.40
2023-02-23T00:46:24.019Z,40.05
2023-02-23T00:48:51.240Z,41.70
2023-02-23T00:51:19.278Z,41.75
2023-02-23T00:53:45.942Z,43.67
2023-02-23T00:56:14.702Z,46.42
2023-02-23T00:58:42.095Z,40.72
2023-02-23T01:01:13.432Z,43.03
2023-02-23T01:03:41.852Z,43.55
2023-02-23T01:06:12.372Z,40.00
2023-02-23T01:08:42.459Z,44.35
2023-02-23T01:11:13.628Z,42.83
2023-02-23T01:13:43.639Z,38.08
2023-02-23T01:16:15.421Z,45.13
2023-02-23T01:18:44.567Z,40.58
2023-02-23T01:21:24.510Z,41.22
2023-02-23T01:23:52.481Z,42.35
2023-02-23T01:26:22.985Z,44.65
2023-02-23T01:28:52.695Z,43.58
2023-02-23T01:31:20.838Z,44.20
2023-02-23T01:33:47.871Z,43.15
2023-02-23T01:36:14.470Z,42.88
2023-02-23T01:38:41.367Z,43.53
2023-02-23T01:41:08.933Z,49.20
2023-02-23T01:43:37.361Z,46.45
2023-02-23T01:46:04.250Z,47.67
2023-02-23T01:48:35.610Z,45.38
2023-02-23T01:51:10.681Z,42.28
2023-02-23T01:53:41.816Z,42.03
2023-02-23T01:56:16.096Z,45.58
2023-02-23T01:58:47.706Z,45.03
2023-02-23T02:01:14.570Z,45.22
2023-02-23T02:03:49.700Z,41.53
2023-02-23T02:06:18.264Z,45.00
2023-02-23T02:08:49.085Z,45.33
2023-02-23T02:11:35.884Z,47.13
2023-02-23T02:14:13.082Z,41.30
2023-02-23T02:16:45.694Z,43.67
2023-02-23T02:19:28.252Z,45.00
2023-02-23T02:22:14.256Z,45.83
2023-02-23T02:24:59.651Z,44.72
2023-02-23T02:27:47.089Z,40.55
2023-02-23T02:30:54.846Z,44.45
2023-02-23T02:33:40.323Z,41.75
2023-02-23T02:36:21.942Z,43.55
2023-02-23T02:39:07.827Z,44.22
2023-02-23T02:41:53.230Z,43.88
2023-02-23T02:44:49.693Z,46.33
2023-02-23T02:47:32.777Z,46.50
2023-02-23T02:50:31.177Z,47.08
2023-02-23T02:53:04.929Z,43.85
2023-02-23T02:55:35.596Z,48.45
2023-02-23T02:58:07.655Z,48.10
2023-02-23T03:00:59.710Z,40.47
2023-02-23T03:03:57.228Z,43.38
2023-02-23T03:06:48.997Z,43.33
2023-02-23T03:09:47.014Z,45.13
2023-02-23T03:12:44.575Z,46.25
2023-02-23T03:15:44.649Z,42.83
2023-02-23T03:19:02.710Z,46.08
2023-02-23T03:22:00.014Z,45.00
2023-02-23T03:25:20.609Z,44.50
2023-02-23T03:28:12.470Z,47.65
2023-02-23T03:31:18.724Z,46.35
2023-02-23T03:34:31.809Z,51.03
2023-02-23T03:37:26.766Z,42.65
2023-02-23T03:40:26.942Z,42.60
2023-02-23T03:43:15.091Z,45.22
2023-02-23T03:46:04.733Z,49.45
2023-02-23T03:48:52.417Z,47.70
2023-02-23T03:51:40.987Z,51.58
2023-02-23T03:54:36.640Z,47.45
2023-02-23T03:57:26.804Z,45.70
2023-02-23T04:00:17.317Z,41.78
2023-02-23T04:03:06.456Z,43.47
2023-02-23T04:05:55.186Z,45.72
2023-02-23T04:08:47.548Z,42.95
2023-02-23T04:11:58.214Z,45.55
2023-02-23T04:14:51.647Z,40.95
2023-02-23T04:19:55.693Z,42.83
2023-02-23T04:22:23.892Z,46.78
2023-02-23T04:24:51.002Z,39.80
2023-02-23T04:27:18.307Z,46.75
2023-02-23T04:29:47.111Z,49.38
2023-02-23T04:32:19.333Z,45.45
2023-02-23T04:34:45.813Z,48.10
2023-02-23T04:37:13.418Z,43.05
2023-02-23T04:39:39.899Z,41.88
2023-02-23T04:42:06.320Z,45.10
2023-02-23T04:44:32.736Z,43.33
2023-02-23T04:46:59.620Z,44.25
2023-02-23T04:49:26.353Z,45.00
2023-02-23T04:51:55.510Z,44.47
2023-02-23T04:54:22.113Z,40.97
2023-02-23T04:56:48.934Z,43.08
2023-02-23T04:59:15.577Z,40.00
2023-02-23T05:01:42.505Z,40.60
2023-02-23T05:04:08.982Z,40.45
2023-02-23T05:06:35.914Z,41.63
2023-02-23T05:09:03.158Z,39.05
2023-02-23T05:11:30.482Z,40.92
2023-02-23T05:13:57.016Z,37.72
2023-02-23T05:16:23.580Z,40.25
2023-02-23T05:18:50.100Z,37.35
2023-02-23T05:21:17.079Z,38.38
2023-02-23T05:23:43.617Z,43.30
2023-02-23T05:26:12.393Z,43.03
2023-02-23T05:28:41.023Z,41.63
2023-02-23T05:31:08.000Z,44.92
2023-02-23T05:33:42.251Z,39.45
2023-02-23T05:36:10.752Z,45.28
2023-02-23T05:38:37.720Z,38.95
2023-02-23T05:41:11.894Z,44.97
2023-02-23T05:43:38.950Z,42.53
2023-02-23T05:46:10.151Z,45.53
2023-02-23T05:48:36.872Z,43.65
2023-02-23T05:51:08.672Z,48.00
2023-02-23T05:53:35.503Z,45.75
2023-02-23T05:56:03.485Z,42.92
2023-02-23T05:58:30.374Z,45.45
2023-02-23T06:00:57.078Z,53.28
2023-02-23T06:03:23.734Z,48.58
2023-02-23T06:05:52.198Z,49.15
2023-02-23T06:08:19.226Z,48.08
2023-02-23T06:10:46.114Z,53.40
2023-02-23T06:13:13.240Z,54.17
2023-02-23T06:15:40.196Z,52.15
2023-02-23T06:18:07.506Z,53.05
2023-02-23T06:20:33.890Z,52.97
2023-02-23T06:23:00.375Z,51.45
2023-02-23T06:25:27.252Z,48.90
2023-02-23T06:27:54.629Z,51.92
2023-02-23T06:30:21.389Z,55.15
2023-02-23T06:32:47.853Z,55.20
2023-02-23T06:35:17.348Z,53.83
2023-02-23T06:37:43.847Z,47.60
2023-02-23T06:40:10.790Z,56.28
2023-02-23T06:42:37.243Z,52.75
2023-02-23T06:45:04.718Z,53.38
2023-02-23T06:47:31.451Z,52.58
2023-02-23T06:49:59.746Z,53.83
2023-02-23T06:52:26.238Z,53.60
2023-02-23T06:54:52.647Z,49.90
2023-02-23T06:57:19.286Z,51.75
2023-02-23T06:59:45.658Z,60.63
2023-02-23T07:02:13.563Z,51.78
2023-02-23T07:04:39.904Z,54.72
2023-02-23T07:07:06.458Z,49.47
2023-02-23T07:09:32.839Z,53.05
2023-02-23T07:12:00.249Z,48.85
2023-02-23T07:14:27.452Z,46.75
2023-02-23T07:16:54.456Z,47.17
2023-02-23T07:19:20.869Z,50.92
2023-02-23T07:21:47.371Z,52.42
2023-02-23T07:24:13.760Z,50.35
2023-02-23T07:26:43.432Z,51.45
2023-02-23T07:29:12.172Z,51.50
2023-02-23T07:31:39.343Z,64.10
2023-02-23T07:34:06.771Z,59.78
2023-02-23T07:36:33.308Z,61.50
2023-02-23T07:38:59.796Z,61.75
2023-02-23T07:41:26.362Z,64.60
2023-02-23T07:43:52.900Z,62.00
2023-02-23T07:46:19.350Z,60.67
2023-02-23T07:48:45.993Z,58.72
2023-02-23T07:51:15.262Z,56.97
2023-02-23T07:53:42.094Z,58.42
2023-02-23T07:56:10.839Z,53.33
2023-02-23T07:58:41.517Z,52.85
2023-02-23T08:01:08.658Z,56.17
2023-02-23T08:03:35.128Z,53.45
2023-02-23T08:06:01.563Z,51.65
2023-02-23T08:08:28.325Z,50.92
2023-02-23T08:11:04.923Z,50.35
2023-02-23T08:13:32.010Z,57.72
2023-02-23T08:15:58.999Z,50.92
2023-02-23T08:18:25.807Z,50.13
2023-02-23T08:20:58.124Z,54.72
2023-02-23T08:23:24.560Z,58.53
2023-02-23T08:25:50.923Z,51.95
2023-02-23T08:28:17.328Z,52.60
2023-02-23T08:30:43.712Z,49.83
2023-02-23T08:33:10.142Z,49.72
2023-02-23T08:35:36.528Z,54.55
2023-02-23T08:38:02.992Z,56.42
2023-02-23T08:40:29.393Z,49.85
2023-02-23T08:42:56.230Z,55.83
2023-02-23T08:45:22.571Z,52.13
2023-02-23T08:47:48.976Z,56.63
2023-02-23T08:50:15.412Z,55.53
2023-02-23T08:52:42.579Z,57.83
2023-02-23T08:55:11.621Z,55.72
2023-02-23T08:57:38.057Z,58.88
2023-02-23T09:00:13.939Z,52.90
2023-02-23T09:02:45.343Z,49.10
2023-02-23T09:05:11.957Z,53.15
2023-02-23T09:07:40.123Z,53.10
2023-02-23T09:10:07.239Z,55.72
2023-02-23T09:12:33.649Z,57.03
2023-02-23T09:15:00.197Z,56.05
2023-02-23T09:17:27.371Z,55.58
2023-02-23T09:19:53.763Z,57.40
2023-02-23T09:22:20.351Z,60.08
2023-02-23T09:24:46.773Z,59.40
2023-02-23T09:27:14.135Z,48.10
2023-02-23T09:29:42.038Z,60.97
2023-02-23T09:32:09.029Z,60.13
2023-02-23T09:34:37.386Z,49.95
2023-02-23T09:37:04.568Z,57.20
2023-02-23T09:39:38.078Z,53.70
2023-02-23T09:42:34.012Z,52.50
2023-02-23T09:45:13.041Z,50.45
2023-02-23T09:48:16.501Z,46.20
2023-02-23T09:50:47.590Z,47.38
2023-02-23T09:53:20.286Z,44.75
2023-02-23T09:55:48.406Z,48.40
2023-02-23T09:58:23.450Z,50.45
2023-02-23T10:01:14.118Z,51.85
2023-02-23T10:03:50.640Z,47.40
2023-02-23T10:06:18.303Z,55.40
2023-02-23T10:08:54.510Z,50.15
2023-02-23T10:11:28.482Z,50.08
2023-02-23T10:14:22.271Z,42.35
2023-02-23T10:17:04.370Z,41.70
2023-02-23T10:19:50.542Z,37.00
2023-02-23T10:22:19.515Z,46.30
2023-02-23T10:24:52.972Z,44.40
2023-02-23T10:27:21.940Z,40.75
2023-02-23T10:29:51.303Z,40.70
2023-02-23T10:32:31.089Z,44.50
2023-02-23T10:34:57.875Z,38.80
2023-02-23T10:37:25.765Z,41.63
2023-02-23T10:39:53.248Z,35.20
2023-02-23T10:42:30.062Z,35.13
2023-02-23T10:44:57.134Z,30.30
2023-02-23T10:47:31.035Z,32.15
2023-02-23T10:49:58.509Z,30.85
2023-02-23T10:52:31.698Z,33.60
2023-02-23T10:55:00.369Z,38.05
2023-02-23T10:57:32.653Z,37.03
2023-02-23T11:00:00.996Z,32.25
2023-02-23T11:02:30.717Z,30.70
2023-02-23T11:04:59.065Z,33.47
2023-02-23T11:07:31.953Z,31.27
2023-02-23T11:10:00.277Z,32.72
2023-02-23T11:12:37.034Z,34.30
2023-02-23T11:15:48.590Z,32.72
2023-02-23T11:18:22.997Z,29.42
2023-02-23T11:20:50.961Z,31.02
2023-02-23T11:23:37.479Z,30.95
2023-02-23T11:26:17.306Z,31.38
2023-02-23T11:28:52.382Z,28.15
2023-02-23T11:31:22.548Z,28.17
2023-02-23T11:33:52.746Z,37.03
2023-02-23T11:36:22.023Z,30.02
2023-02-23T11:39:01.440Z,27.33
2023-02-23T11:41:27.961Z,26.10
2023-02-23T11:43:59.687Z,24.48
2023-02-23T11:46:29.353Z,29.30
2023-02-23T11:49:03.984Z,28.75
2023-02-23T11:51:51.650Z,30.25
2023-02-23T11:54:25.708Z,30.35
2023-02-23T11:56:54.988Z,29.98
2023-02-23T11:59:48.106Z,32.63
2023-02-23T12:02:28.167Z,30.90
2023-02-23T12:05:09.000Z,28.00
2023-02-23T12:07:43.348Z,27.25
2023-02-23T12:10:40.013Z,27.88
2023-02-23T12:13:31.357Z,24.90
2023-02-23T12:16:20.203Z,21.80
2023-02-23T12:18:49.940Z,27.70
2023-02-23T12:21:38.121Z,27.20
2023-02-23T12:24:29.558Z,26.52
2023-02-23T12:27:12.715Z,24.58
2023-02-23T12:29:48.979Z,27.17
2023-02-23T12:32:20.024Z,29.52
2023-02-23T12:34:55.008Z,20.90
2023-02-23T12:37:37.045Z,23.63
2023-02-23T12:40:38.384Z,22.58
2023-02-23T12:43:18.123Z,20.58
2023-02-23T12:45:55.556Z,24.50
2023-02-23T12:48:35.472Z,22.45
2023-02-23T12:51:09.632Z,20.23
2023-02-23T12:53:44.834Z,20.38
2023-02-23T12:56:58.985Z,23.50
2023-02-23T12:59:43.936Z,22.20
2023-02-23T13:02:11.968Z,21.35
2023-02-23T13:05:15.663Z,19.55
2023-02-23T13:07:59.226Z,19.60
2023-02-23T13:10:38.510Z,21.83
2023-02-23T13:13:17.156Z,18.83
2023-02-23T13:16:17.001Z,19.55
2023-02-23T13:19:12.573Z,19.13
2023-02-23T13:21:44.523Z,21.23
2023-02-23T13:24:25.466Z,18.27
2023-02-23T13:27:07.749Z,18.65
2023-02-23T13:29:43.357Z,18.70
2023-02-23T13:32:14.659Z,18.67
2023-02-23T13:34:47.345Z,18.38
2023-02-23T13:37:17.245Z,18.80
2023-02-23T13:39:55.605Z,16.23
2023-02-23T13:42:49.004Z,20.85
2023-02-23T13:45:31.316Z,20.40
2023-02-23T13:48:18.545Z,19.60
2023-02-23T13:50:57.161Z,19.92
2023-02-23T13:53:47.708Z,18.90
2023-02-23T13:56:19.920Z,19.42
2023-02-23T13:58:58.592Z,20.10
2023-02-23T14:01:36.658Z,18.48
2023-02-23T14:04:12.398Z,17.88
2023-02-23T14:06:41.215Z,17.13
2023-02-23T14:09:23.820Z,17.25
2023-02-23T14:12:02.604Z,17.17
2023-02-23T14:14:32.192Z,18.65
2023-02-23T14:17:13.752Z,20.88
2023-02-23T14:20:06.741Z,18.20
2023-02-23T14:22:36.787Z,21.10
2023-02-23T14:25:51.135Z,22.58
2023-02-23T14:28:35.597Z,21.80
2023-02-23T14:31:11.090Z,24.02
2023-02-23T14:33:37.739Z,24.92
2023-02-23T14:36:22.086Z,23.63
2023-02-23T14:39:22.429Z,23.38
2023-02-23T14:41:57.635Z,23.10
2023-02-23T14:44:35.363Z,24.95
2023-02-23T14:47:13.118Z,25.15
2023-02-23T14:49:45.549Z,24.85
2023-02-23T14:52:24.582Z,26.88
2023-02-23T14:54:52.689Z,28.73
2023-02-23T14:57:24.490Z,26.15
2023-02-23T15:00:02.021Z,27.02
2023-02-23T15:02:30.359Z,26.65
2023-02-23T15:04:56.961Z,25.42
2023-02-23T15:07:32.298Z,26.60
2023-02-23T15:10:00.753Z,27.52
2023-02-23T15:12:29.734Z,26.05
2023-02-23T15:14:59.020Z,29.25
2023-02-23T15:17:31.651Z,28.80
2023-02-23T15:20:15.901Z,29.17
2023-02-23T15:22:47.685Z,25.00
2023-02-23T15:25:18.445Z,25.67
2023-02-23T15:27:46.822Z,26.95
2023-02-23T15:30:30.617Z,28.40
2023-02-23T15:33:12.824Z,27.50
2023-02-23T15:35:47.250Z,26.73
2023-02-23T15:38:41.838Z,24.20
2023-02-23T15:41:15.288Z,25.35
2023-02-23T15:43:42.867Z,24.33
2023-02-23T15:46:16.467Z,26.55
2023-02-23T15:48:47.308Z,24.20
2023-02-23T15:51:24.540Z,25.05
2023-02-23T15:53:51.425Z,25.02
2023-02-23T15:56:27.654Z,24.40
2023-02-23T15:59:03.264Z,25.52
2023-02-23T16:01:31.909Z,25.20
2023-02-23T16:04:12.156Z,25.48
2023-02-23T16:06:51.869Z,24.10
2023-02-23T16:09:21.647Z,20.55
2023-02-23T16:11:51.648Z,24.58
2023-02-23T16:14:20.007Z,23.98
2023-02-23T16:17:08.429Z,19.67
2023-02-23T16:19:40.902Z,24.23
2023-02-23T16:22:18.514Z,22.38
2023-02-23T16:24:45.070Z,23.48
2023-02-23T16:27:12.162Z,22.70
2023-02-23T16:29:44.812Z,25.70
2023-02-23T16:32:17.761Z,27.38
2023-02-23T16:34:49.187Z,25.35
2023-02-23T16:37:17.882Z,21.42
2023-02-23T16:39:44.767Z,24.15
2023-02-23T16:42:32.316Z,26.83
2023-02-23T16:45:00.102Z,22.27
2023-02-23T16:47:36.349Z,23.33
2023-02-23T16:50:20.596Z,23.35
2023-02-23T16:52:51.860Z,27.38
2023-02-23T16:55:25.785Z,22.55
2023-02-23T16:57:56.777Z,26.15
2023-02-23T17:00:29.228Z,29.25
2023-02-23T17:02:57.369Z,30.35
2023-02-23T17:05:24.189Z,23.90
2023-02-23T17:07:52.129Z,25.05
2023-02-23T17:10:25.232Z,26.20
2023-02-23T17:12:56.133Z,24.45
2023-02-23T17:15:24.492Z,21.08
2023-02-23T17:17:53.140Z,23.65
2023-02-23T17:20:21.341Z,23.75
2023-02-23T17:22:49.436Z,26.80
2023-02-23T17:25:17.168Z,27.58
2023-02-23T17:27:43.920Z,27.33
2023-02-23T17:30:11.614Z,26.40
2023-02-23T17:32:38.395Z,29.83
2023-02-23T17:35:05.334Z,28.75
2023-02-23T17:37:31.748Z,25.95
2023-02-23T17:39:58.190Z,27.88
2023-02-23T17:42:33.748Z,35.08
2023-02-23T17:45:02.002Z,26.95
2023-02-23T17:47:33.244Z,31.08
2023-02-23T17:50:01.004Z,30.67
2023-02-23T17:52:28.298Z,32.63
2023-02-23T17:54:55.250Z,31.50
2023-02-23T17:57:23.449Z,27.90
2023-02-23T17:59:51.204Z,31.48
2023-02-23T18:02:20.736Z,31.75
2023-02-23T18:04:48.634Z,35.20
2023-02-23T18:07:15.706Z,33.08
2023-02-23T18:09:42.407Z,31.60
2023-02-23T18:12:09.162Z,32.72
2023-02-23T18:14:37.619Z,34.05
2023-02-23T18:17:04.883Z,28.33
2023-02-23T18:19:31.492Z,31.08
2023-02-23T18:21:57.957Z,30.70
2023-02-23T18:24:25.042Z,31.05
2023-02-23T18:26:51.518Z,33.08
2023-02-23T18:29:20.824Z,31.98
2023-02-23T18:31:49.584Z,40.72
2023-02-23T18:34:16.166Z,45.40
2023-02-23T18:36:42.679Z,37.83
2023-02-23T18:39:10.816Z,34.05
2023-02-23T18:41:37.392Z,31.50
2023-02-23T18:44:07.389Z,33.90
2023-02-23T18:46:34.849Z,31.45
2023-02-23T18:49:01.801Z,45.70
2023-02-23T18:51:28.376Z,36.63
2023-02-23T18:53:55.422Z,29.40
2023-02-23T18:56:27.957Z,33.92
2023-02-23T18:58:57.438Z,35.05
2023-02-23T19:01:26.879Z,38.17
2023-02-23T19:03:55.433Z,35.17
2023-02-23T19:06:23.060Z,43.38
2023-02-23T19:08:55.206Z,38.45
2023-02-23T19:11:33.331Z,35.50
2023-02-23T19:14:03.511Z,34.83
2023-02-23T19:16:32.389Z,34.78
2023-02-23T19:19:00.150Z,32.10
2023-02-23T19:21:27.534Z,31.30
2023-02-23T19:23:57.576Z,32.17
2023-02-23T19:26:25.424Z,31.90
2023-02-23T19:28:52.028Z,32.40
2023-02-23T19:31:20.852Z,28.65
2023-02-23T19:33:49.504Z,32.17
2023-02-23T19:36:20.051Z,30.63
2023-02-23T19:38:47.236Z,30.63
2023-02-23T19:41:17.802Z,34.90
2023-02-23T19:43:44.615Z,32.53
2023-02-23T19:46:14.569Z,30.92
2023-02-23T19:48:41.132Z,31.92
2023-02-23T19:51:11.452Z,30.60
2023-02-23T19:53:38.409Z,25.77
2023-02-23T19:56:08.518Z,29.27
2023-02-23T19:58:35.889Z,28.30
2023-02-23T20:01:07.752Z,26.90
2023-02-23T20:03:35.564Z,30.70
2023-02-23T20:06:05.055Z,28.85
2023-02-23T20:08:31.532Z,26.48
2023-02-23T20:10:58.106Z,26.33
2023-02-23T20:13:24.518Z,23.50
2023-02-23T20:15:59.239Z,26.73
2023-02-23T20:18:26.614Z,25.30
2023-02-23T20:20:53.461Z,25.25
2023-02-23T20:23:19.868Z,25.75
2023-02-23T20:25:46.529Z,27.80
2023-02-23T20:28:13.136Z,25.45
2023-02-23T20:30:39.584Z,25.13
2023-02-23T20:33:10.586Z,24.42
2023-02-23T20:35:37.037Z,26.00
2023-02-23T20:38:04.511Z,27.90
2023-02-23T20:40:31.006Z,27.65
2023-02-23T20:42:57.520Z,29.50
2023-02-23T20:45:25.646Z,28.65
2023-02-23T20:47:53.298Z,28.58
2023-02-23T20:50:22.381Z,32.70
2023-02-23T20:52:49.365Z,31.30
2023-02-23T20:55:18.937Z,33.88
2023-02-23T20:57:47.564Z,32.13
2023-02-23T21:00:22.489Z,32.33
2023-02-23T21:02:55.158Z,34.10
2023-02-23T21:05:26.047Z,35.25
2023-02-23T21:07:53.121Z,34.72
2023-02-23T21:10:20.393Z,33.20
2023-02-23T21:12:46.803Z,33.15
2023-02-23T21:15:14.698Z,37.03
2023-02-23T21:17:41.931Z,35.67
2023-02-23T21:20:12.825Z,36.45
2023-02-23T21:22:39.734Z,39.00
2023-02-23T21:25:10.259Z,36.42
2023-02-23T21:27:38.096Z,35.03
2023-02-23T21:30:06.265Z,39.55
2023-02-23T21:32:35.281Z,34.35
2023-02-23T21:35:01.777Z,36.20
2023-02-23T21:37:28.144Z,40.10
2023-02-23T21:39:55.602Z,35.58
2023-02-23T21:42:24.058Z,39.60
2023-02-23T21:44:50.524Z,42.00
2023-02-23T21:47:17.442Z,34.15
2023-02-23T21:49:48.965Z,37.28
2023-02-23T21:52:16.656Z,37.25
2023-02-23T21:54:48.654Z,39.72
2023-02-23T21:57:15.263Z,37.05
2023-02-23T21:59:41.828Z,34.72
2023-02-23T22:02:11.867Z,37.00
2023-02-23T22:04:39.208Z,34.95
2023-02-23T22:07:07.953Z,35.08
2023-02-23T22:09:35.413Z,37.13
2023-02-23T22:12:01.905Z,35.22
2023-02-23T22:14:28.288Z,36.95
2023-02-23T22:16:54.802Z,37.95
2023-02-23T22:19:21.402Z,34.15
2023-02-23T22:21:48.286Z,39.67
2023-02-23T22:24:16.948Z,36.95
2023-02-23T22:26:54.514Z,37.58
2023-02-23T22:29:26.040Z,35.17
2023-02-23T22:31:52.595Z,34.33
2023-02-23T22:34:19.084Z,40.05
2023-02-23T22:36:45.784Z,40.58
2023-02-23T22:39:18.343Z,35.70
2023-02-23T22:41:46.806Z,37.47
2023-02-23T22:44:21.006Z,40.03
2023-02-23T22:46:48.239Z,37.70
2023-02-23T22:49:15.726Z,38.95
2023-02-23T22:51:43.719Z,37.63
2023-02-23T22:54:11.361Z,41.08
2023-02-23T22:56:38.128Z,35.70
2023-02-23T22:59:06.106Z,39.03
2023-02-23T23:01:33.615Z,38.25
2023-02-23T23:04:00.026Z,34.35
2023-02-23T23:06:26.785Z,38.20
2023-02-23T23:08:56.877Z,36.70
2023-02-23T23:11:26.583Z,33.17
2023-02-23T23:13:57.611Z,36.83
2023-02-23T23:16:32.070Z,36.05
2023-02-23T23:19:04.647Z,34.63
2023-02-23T23:21:34.093Z,36.60
2023-02-23T23:24:05.746Z,33.90
2023-02-23T23:26:35.006Z,36.60
2023-02-23T23:29:06.979Z,33.92
2023-02-23T23:31:36.241Z,36.38
2023-02-23T23:34:13.365Z,36.53
2023-02-23T23:36:52.873Z,41.08
2023-02-23T23:39:23.311Z,37.25
2023-02-23T23:41:50.326Z,32.35
2023-02-23T23:44:19.671Z,34.90
2023-02-23T23:46:47.079Z,38.95
2023-02-23T23:49:15.792Z,38.53
2023-02-23T23:51:49.806Z,39.22
2023-02-23T23:54:26.088Z,40.13
2023-02-23T23:56:52.933Z,37.80
2023-02-23T23:59:22.698Z,38.38
